createdAt,value
2022-09-25T00:01:36.255Z,7.10
2022-09-25T00:04:05.669Z,7.10
2022-09-25T00:06:33.998Z,7.20
2022-09-25T00:09:03.117Z,7.10
2022-09-25T00:11:33.002Z,7.00
2022-09-25T00:14:05.446Z,7.10
2022-09-25T00:16:33.992Z,7.10
2022-09-25T00:19:19.759Z,7.20
2022-09-25T00:21:53.307Z,7.20
2022-09-25T00:24:22.337Z,7.20
2022-09-25T00:26:50.540Z,7.00
2022-09-25T00:29:21.537Z,7.00
2022-09-25T00:31:52.441Z,7.00
2022-09-25T00:34:20.490Z,6.90
2022-09-25T00:36:48.497Z,6.90
2022-09-25T00:39:16.698Z,6.90
2022-09-25T00:41:47.690Z,6.90
2022-09-25T00:44:56.493Z,6.90
2022-09-25T00:47:45.908Z,6.90
2022-09-25T00:50:26.168Z,6.80
2022-09-25T00:52:55.850Z,6.70
2022-09-25T00:55:24.462Z,6.70
2022-09-25T00:57:56.926Z,6.70
2022-09-25T01:00:26.597Z,6.70
2022-09-25T01:02:57.669Z,6.60
2022-09-25T01:05:29.941Z,6.60
2022-09-25T01:08:00.853Z,6.50
2022-09-25T01:10:29.725Z,6.60
2022-09-25T01:13:00.965Z,6.50
2022-09-25T01:15:38.545Z,6.50
2022-09-25T01:18:17.873Z,6.50
2022-09-25T01:21:03.357Z,6.50
2022-09-25T01:23:45.752Z,6.50
2022-09-25T01:26:35.871Z,6.40
2022-09-25T01:29:12.212Z,6.40
2022-09-25T01:31:47.878Z,6.40
2022-09-25T01:34:20.126Z,6.40
2022-09-25T01:36:52.940Z,6.50
2022-09-25T01:39:23.786Z,6.50
2022-09-25T01:41:56.996Z,6.50
2022-09-25T01:44:31.543Z,6.70
2022-09-25T01:47:09.627Z,6.80
2022-09-25T01:49:47.204Z,6.80
2022-09-25T01:52:18.723Z,6.70
2022-09-25T01:54:51.918Z,6.70
2022-09-25T01:57:24.216Z,6.70
2022-09-25T01:59:59.230Z,6.60
2022-09-25T02:02:34.026Z,6.60
2022-09-25T02:05:09.075Z,6.60
2022-09-25T02:07:41.263Z,6.50
2022-09-25T02:10:14.004Z,6.40
2022-09-25T02:12:47.170Z,6.30
2022-09-25T02:15:20.432Z,6.30
2022-09-25T02:18:12.136Z,6.20
2022-09-25T02:20:42.436Z,6.10
2022-09-25T02:23:18.829Z,6.10
2022-09-25T02:25:50.761Z,6.20
2022-09-25T02:28:18.994Z,6.10
2022-09-25T02:30:50.397Z,6.10
2022-09-25T02:33:18.614Z,6.20
2022-09-25T02:35:46.576Z,6.10
2022-09-25T02:38:15.975Z,5.90
2022-09-25T02:40:51.281Z,6.00
2022-09-25T02:43:31.542Z,5.90
2022-09-25T02:46:10.271Z,5.90
2022-09-25T02:48:51.199Z,5.80
2022-09-25T02:51:25.720Z,5.90
2022-09-25T02:54:05.189Z,5.80
2022-09-25T02:56:36.868Z,5.80
2022-09-25T02:59:09.018Z,5.90
2022-09-25T03:01:41.908Z,5.80
2022-09-25T03:04:11.218Z,5.60
2022-09-25T03:06:40.785Z,5.50
2022-09-25T03:09:10.991Z,5.40
2022-09-25T03:11:41.625Z,5.40
2022-09-25T03:14:10.369Z,5.40
2022-09-25T03:16:46.254Z,5.40
2022-09-25T03:19:15.277Z,5.40
2022-09-25T03:21:43.527Z,5.50
2022-09-25T03:24:11.717Z,5.50
2022-09-25T03:26:40.556Z,5.40
2022-09-25T03:29:23.911Z,5.40
2022-09-25T03:32:00.137Z,5.30
2022-09-25T03:34:28.137Z,5.40
2022-09-25T03:36:56.180Z,5.40
2022-09-25T03:39:24.297Z,5.40
2022-09-25T03:41:52.411Z,5.40
2022-09-25T03:44:23.163Z,5.30
2022-09-25T03:46:51.211Z,5.30
2022-09-25T03:49:20.562Z,5.40
2022-09-25T03:51:48.629Z,5.40
2022-09-25T03:54:18.696Z,5.40
2022-09-25T03:56:46.745Z,5.50
2022-09-25T03:59:14.960Z,5.40
2022-09-25T04:01:47.632Z,5.50
2022-09-25T04:04:15.752Z,5.50
2022-09-25T04:06:46.027Z,5.50
2022-09-25T04:09:14.059Z,5.40
2022-09-25T04:11:43.004Z,5.50
2022-09-25T04:14:15.834Z,5.50
2022-09-25T04:16:43.916Z,5.40
2022-09-25T04:19:15.945Z,5.50
2022-09-25T04:21:45.388Z,5.50
2022-09-25T04:24:30.917Z,5.50
2022-09-25T04:26:59.003Z,5.60
2022-09-25T04:29:27.942Z,5.60
2022-09-25T04:32:11.766Z,5.60
2022-09-25T04:34:39.802Z,5.70
2022-09-25T04:37:10.545Z,5.70
2022-09-25T04:39:38.564Z,5.70
2022-09-25T04:42:06.757Z,5.80
2022-09-25T04:44:37.681Z,5.90
2022-09-25T04:47:05.917Z,6.10
2022-09-25T04:49:33.897Z,6.00
2022-09-25T04:52:02.296Z,6.00
2022-09-25T04:54:32.684Z,6.10
2022-09-25T04:57:00.711Z,6.00
2022-09-25T04:59:28.904Z,6.10
2022-09-25T05:01:57.152Z,6.20
2022-09-25T05:04:25.451Z,6.20
2022-09-25T05:06:53.500Z,6.30
2022-09-25T05:09:21.510Z,6.40
2022-09-25T05:11:51.020Z,6.40
2022-09-25T05:14:18.988Z,6.50
2022-09-25T05:16:47.532Z,6.50
2022-09-25T05:19:15.534Z,6.50
2022-09-25T05:21:44.260Z,6.50
2022-09-25T05:24:13.640Z,6.50
2022-09-25T05:26:42.743Z,6.60
2022-09-25T05:29:12.228Z,6.60
2022-09-25T05:31:46.806Z,6.70
2022-09-25T05:34:14.947Z,6.70
2022-09-25T05:36:43.077Z,6.80
2022-09-25T05:39:14.448Z,6.90
2022-09-25T05:41:42.897Z,6.80
2022-09-25T05:44:12.624Z,7.00
2022-09-25T05:46:40.969Z,7.10
2022-09-25T05:49:09.113Z,7.20
2022-09-25T05:51:37.235Z,7.20
2022-09-25T05:54:05.375Z,7.40
2022-09-25T05:56:33.479Z,7.50
2022-09-25T05:59:01.619Z,7.60
2022-09-25T06:01:31.062Z,7.70
2022-09-25T06:03:59.060Z,7.70
2022-09-25T06:06:27.744Z,7.70
2022-09-25T06:08:56.282Z,7.70
2022-09-25T06:11:27.633Z,7.60
2022-09-25T06:13:57.270Z,7.80
2022-09-25T06:16:25.306Z,7.90
2022-09-25T06:18:54.714Z,8.10
2022-09-25T06:21:22.713Z,8.20
2022-09-25T06:23:54.417Z,8.30
2022-09-25T06:26:23.310Z,8.50
2022-09-25T06:28:51.330Z,8.60
2022-09-25T06:31:19.440Z,8.80
2022-09-25T06:33:51.586Z,8.80
2022-09-25T06:36:21.042Z,8.90
2022-09-25T06:38:49.413Z,8.80
2022-09-25T06:41:17.689Z,9.00
2022-09-25T06:43:46.366Z,9.00
2022-09-25T06:46:14.465Z,9.00
2022-09-25T06:48:42.721Z,9.10
2022-09-25T06:51:10.826Z,9.20
2022-09-25T06:53:40.087Z,9.20
2022-09-25T06:56:08.149Z,9.30
2022-09-25T06:58:36.151Z,9.30
2022-09-25T07:01:09.651Z,9.50
2022-09-25T07:03:46.025Z,9.60
2022-09-25T07:06:15.687Z,9.50
2022-09-25T07:08:45.604Z,9.50
2022-09-25T07:11:15.376Z,9.40
2022-09-25T07:13:43.486Z,9.40
2022-09-25T07:16:14.455Z,9.50
2022-09-25T07:18:43.870Z,9.40
2022-09-25T07:21:13.936Z,9.50
2022-09-25T07:23:42.167Z,9.50
2022-09-25T07:26:13.783Z,9.60
2022-09-25T07:28:43.467Z,9.70
2022-09-25T07:31:13.391Z,9.80
2022-09-25T07:33:41.564Z,9.90
2022-09-25T07:36:10.315Z,9.90
2022-09-25T07:38:38.555Z,10.20
2022-09-25T07:41:07.278Z,10.50
2022-09-25T07:43:40.235Z,10.30
2022-09-25T07:46:08.493Z,10.30
2022-09-25T07:48:36.567Z,10.40
2022-09-25T07:51:07.088Z,10.50
2022-09-25T07:53:35.172Z,10.40
2022-09-25T07:56:07.407Z,10.40
2022-09-25T07:58:36.584Z,10.40
2022-09-25T08:01:07.919Z,10.30
2022-09-25T08:03:36.188Z,10.50
2022-09-25T08:06:05.937Z,10.60
2022-09-25T08:08:35.733Z,10.60
2022-09-25T08:11:06.898Z,10.70
2022-09-25T08:13:35.544Z,10.80
2022-09-25T08:16:05.318Z,11.10
2022-09-25T08:18:33.436Z,11.40
2022-09-25T08:21:03.558Z,11.80
2022-09-25T08:23:32.246Z,11.80
2022-09-25T08:26:00.477Z,12.20
2022-09-25T08:28:29.239Z,12.70
2022-09-25T08:30:59.401Z,12.80
2022-09-25T08:33:31.909Z,12.80
2022-09-25T08:36:01.754Z,12.90
2022-09-25T08:38:33.429Z,13.00
2022-09-25T08:41:05.941Z,13.10
2022-09-25T08:43:36.362Z,13.40
2022-09-25T08:46:26.661Z,13.80
2022-09-25T08:49:03.695Z,13.90
2022-09-25T08:51:34.007Z,14.30
2022-09-25T08:54:02.510Z,14.50
2022-09-25T08:56:32.677Z,14.70
2022-09-25T08:59:05.745Z,14.80
2022-09-25T09:01:43.870Z,14.50
2022-09-25T09:04:20.444Z,13.90
2022-09-25T09:07:24.712Z,13.80
2022-09-25T09:09:46.217Z,13.60
2022-09-25T09:12:19.598Z,13.40
2022-09-25T09:14:51.408Z,13.60
2022-09-25T09:17:22.598Z,13.70
2022-09-25T09:19:55.107Z,14.00
2022-09-25T09:22:30.962Z,13.90
2022-09-25T09:25:06.423Z,13.80
2022-09-25T09:27:55.135Z,13.80
2022-09-25T09:30:28.384Z,14.10
2022-09-25T09:33:17.608Z,14.40
2022-09-25T09:35:56.374Z,14.80
2022-09-25T09:38:33.822Z,14.90
2022-09-25T09:41:17.097Z,15.20
2022-09-25T09:43:58.281Z,15.20
2022-09-25T09:46:35.390Z,15.00
2022-09-25T09:49:13.760Z,15.00
2022-09-25T09:51:49.747Z,15.30
2022-09-25T09:54:25.306Z,15.10
2022-09-25T09:56:55.802Z,15.00
2022-09-25T09:59:29.405Z,15.20
2022-09-25T10:02:04.082Z,15.10
2022-09-25T10:04:37.686Z,15.30
2022-09-25T10:07:12.939Z,15.20
2022-09-25T10:09:40.982Z,15.20
2022-09-25T10:12:14.787Z,15.40
2022-09-25T10:14:46.808Z,15.20
2022-09-25T10:17:15.592Z,15.10
2022-09-25T10:19:50.364Z,15.10
2022-09-25T10:22:22.676Z,15.20
2022-09-25T10:24:54.018Z,15.30
2022-09-25T10:27:30.577Z,15.60
2022-09-25T10:30:15.917Z,15.80
2022-09-25T10:32:46.988Z,15.90
2022-09-25T10:35:17.729Z,16.00
2022-09-25T10:37:51.608Z,15.90
2022-09-25T10:40:26.945Z,16.00
2022-09-25T10:43:07.407Z,16.00
2022-09-25T10:45:38.634Z,16.50
2022-09-25T10:48:44.443Z,16.40
2022-09-25T10:51:14.696Z,16.40
2022-09-25T10:53:44.905Z,16.50
2022-09-25T10:56:17.572Z,16.50
2022-09-25T10:58:51.241Z,16.60
2022-09-25T11:01:19.682Z,16.80
2022-09-25T11:03:55.178Z,16.80
2022-09-25T11:06:27.215Z,17.80
2022-09-25T11:09:09.502Z,17.50
2022-09-25T11:11:38.775Z,17.20
2022-09-25T11:14:09.447Z,16.90
2022-09-25T11:16:49.441Z,16.80
2022-09-25T11:19:23.233Z,16.70
2022-09-25T11:22:00.292Z,16.80
2022-09-25T11:24:40.537Z,16.80
2022-09-25T11:27:13.675Z,16.90
2022-09-25T11:29:49.809Z,16.90
2022-09-25T11:32:26.934Z,16.90
2022-09-25T11:35:13.882Z,17.00
2022-09-25T11:37:48.812Z,17.10
2022-09-25T11:40:49.027Z,17.20
2022-09-25T11:43:22.100Z,17.30
2022-09-25T11:45:56.952Z,17.40
2022-09-25T11:48:30.010Z,17.40
2022-09-25T11:51:04.421Z,17.30
2022-09-25T11:53:41.604Z,17.30
2022-09-25T11:56:25.472Z,17.40
2022-09-25T11:59:04.273Z,17.50
2022-09-25T12:01:37.010Z,17.50
2022-09-25T12:04:36.978Z,17.50
2022-09-25T12:07:43.858Z,17.60
2022-09-25T12:10:32.869Z,17.60
2022-09-25T12:13:13.120Z,17.30
2022-09-25T12:15:57.300Z,17.10
2022-09-25T12:18:40.335Z,16.90
2022-09-25T12:21:15.231Z,16.90
2022-09-25T12:23:50.623Z,16.80
2022-09-25T12:26:26.118Z,16.80
2022-09-25T12:29:10.897Z,17.10
2022-09-25T12:31:51.681Z,17.50
2022-09-25T12:34:30.580Z,17.70
2022-09-25T12:37:08.114Z,18.00
2022-09-25T12:39:41.935Z,18.00
2022-09-25T12:42:17.517Z,18.10
2022-09-25T12:44:53.085Z,18.20
2022-09-25T12:47:33.444Z,18.50
2022-09-25T12:50:09.567Z,18.70
2022-09-25T12:52:43.168Z,18.80
2022-09-25T12:55:27.181Z,18.90
2022-09-25T12:58:09.286Z,18.90
2022-09-25T13:00:43.226Z,19.00
2022-09-25T13:03:15.839Z,18.70
2022-09-25T13:05:49.141Z,18.90
2022-09-25T13:08:23.646Z,18.70
2022-09-25T13:10:57.757Z,18.70
2022-09-25T13:13:28.832Z,18.70
2022-09-25T13:15:59.906Z,18.60
2022-09-25T13:18:30.339Z,19.00
2022-09-25T13:21:00.991Z,19.20
2022-09-25T13:23:32.662Z,19.20
2022-09-25T13:26:03.488Z,19.20
2022-09-25T13:28:36.986Z,19.00
2022-09-25T13:31:09.973Z,19.00
2022-09-25T13:33:51.270Z,19.10
2022-09-25T13:36:39.732Z,19.30
2022-09-25T13:39:36.006Z,18.90
2022-09-25T13:42:13.608Z,19.00
2022-09-25T13:45:29.370Z,19.00
2022-09-25T13:48:17.744Z,19.00
2022-09-25T13:51:34.984Z,19.10
2022-09-25T13:54:05.076Z,19.10
2022-09-25T13:56:55.100Z,19.00
2022-09-25T13:59:39.687Z,18.80
2022-09-25T14:02:41.120Z,18.60
2022-09-25T14:05:17.246Z,18.50
2022-09-25T14:07:47.683Z,18.40
2022-09-25T14:10:17.640Z,18.40
2022-09-25T14:12:48.372Z,18.40
2022-09-25T14:15:26.894Z,18.30
2022-09-25T14:18:05.999Z,18.30
2022-09-25T14:20:39.565Z,18.30
2022-09-25T14:23:14.199Z,18.10
2022-09-25T14:25:44.943Z,18.10
2022-09-25T14:28:22.082Z,18.10
2022-09-25T14:31:18.328Z,18.10
2022-09-25T14:34:19.210Z,18.00
2022-09-25T14:37:01.828Z,18.10
2022-09-25T14:39:38.178Z,18.10
2022-09-25T14:42:31.846Z,18.00
2022-09-25T14:45:12.676Z,17.90
2022-09-25T14:47:44.663Z,17.80
2022-09-25T14:50:21.207Z,17.90
2022-09-25T14:52:55.535Z,17.70
2022-09-25T14:55:24.639Z,17.70
2022-09-25T14:57:53.190Z,17.70
2022-09-25T15:00:24.624Z,17.60
2022-09-25T15:02:56.370Z,17.60
2022-09-25T15:05:33.587Z,17.60
2022-09-25T15:08:23.402Z,17.40
2022-09-25T15:11:02.572Z,17.30
2022-09-25T15:13:33.715Z,17.20
2022-09-25T15:16:20.922Z,17.00
2022-09-25T15:18:54.381Z,16.90
2022-09-25T15:21:26.529Z,16.80
2022-09-25T15:23:59.160Z,16.70
2022-09-25T15:26:29.098Z,16.60
2022-09-25T15:28:57.615Z,16.60
2022-09-25T15:31:37.669Z,16.40
2022-09-25T15:34:13.094Z,16.30
2022-09-25T15:36:41.298Z,16.30
2022-09-25T15:39:16.157Z,16.20
2022-09-25T15:41:45.054Z,16.10
2022-09-25T15:44:18.500Z,16.10
2022-09-25T15:46:49.720Z,16.00
2022-09-25T15:49:21.067Z,15.90
2022-09-25T15:51:53.221Z,15.80
2022-09-25T15:54:33.306Z,15.70
2022-09-25T15:57:04.122Z,15.70
2022-09-25T15:59:36.542Z,15.60
2022-09-25T16:02:38.950Z,15.50
2022-09-25T16:05:11.037Z,15.50
2022-09-25T16:07:40.991Z,15.50
2022-09-25T16:10:31.660Z,15.40
2022-09-25T16:13:02.584Z,15.40
2022-09-25T16:15:46.338Z,15.30
2022-09-25T16:18:39.625Z,15.30
2022-09-25T16:21:22.221Z,15.30
2022-09-25T16:23:56.238Z,15.20
2022-09-25T16:26:28.276Z,15.20
2022-09-25T16:29:05.258Z,15.10
2022-09-25T16:31:36.434Z,15.00
2022-09-25T16:34:11.224Z,14.90
2022-09-25T16:36:42.870Z,14.80
2022-09-25T16:39:25.034Z,14.70
2022-09-25T16:41:54.678Z,14.60
2022-09-25T16:44:29.465Z,14.50
2022-09-25T16:47:18.867Z,14.50
2022-09-25T16:49:47.540Z,14.50
2022-09-25T16:52:20.460Z,14.50
2022-09-25T16:54:53.371Z,14.40
2022-09-25T16:57:25.161Z,14.40
2022-09-25T16:59:53.855Z,14.20
2022-09-25T17:02:33.720Z,14.20
2022-09-25T17:05:03.755Z,14.20
2022-09-25T17:07:31.753Z,14.20
2022-09-25T17:10:01.210Z,14.10
2022-09-25T17:12:32.375Z,14.10
2022-09-25T17:15:00.876Z,14.10
2022-09-25T17:17:29.797Z,14.20
2022-09-25T17:19:57.877Z,14.20
2022-09-25T17:22:30.215Z,14.30
2022-09-25T17:25:03.254Z,14.30
2022-09-25T17:27:32.664Z,14.30
2022-09-25T17:30:01.373Z,14.20
2022-09-25T17:32:31.403Z,14.10
2022-09-25T17:35:02.065Z,13.90
2022-09-25T17:37:30.129Z,13.80
2022-09-25T17:39:59.187Z,13.70
2022-09-25T17:42:27.812Z,13.70
2022-09-25T17:44:57.616Z,13.70
2022-09-25T17:47:25.728Z,13.60
2022-09-25T17:49:53.683Z,13.60
2022-09-25T17:52:22.157Z,13.60
2022-09-25T17:54:50.225Z,13.70
2022-09-25T17:57:18.355Z,13.70
2022-09-25T17:59:46.562Z,13.60
2022-09-25T18:02:17.590Z,13.70
2022-09-25T18:04:45.828Z,13.60
2022-09-25T18:07:14.362Z,13.50
2022-09-25T18:09:42.414Z,13.60
2022-09-25T18:12:13.131Z,13.50
2022-09-25T18:14:42.005Z,13.60
2022-09-25T18:17:10.249Z,13.50
2022-09-25T18:19:56.910Z,13.50
2022-09-25T18:22:25.693Z,13.50
2022-09-25T18:24:56.421Z,13.60
2022-09-25T18:27:26.324Z,13.60
2022-09-25T18:29:54.854Z,13.50
2022-09-25T18:32:24.155Z,13.50
2022-09-25T18:34:53.852Z,13.60
2022-09-25T18:37:22.027Z,13.60
2022-09-25T18:39:50.879Z,13.60
2022-09-25T18:42:19.494Z,13.70
2022-09-25T18:44:47.618Z,13.60
2022-09-25T18:47:18.526Z,13.60
2022-09-25T18:49:46.710Z,13.60
2022-09-25T18:52:19.395Z,13.60
2022-09-25T18:54:48.400Z,13.60
2022-09-25T18:57:17.199Z,13.60
2022-09-25T18:59:45.617Z,13.60
2022-09-25T19:02:20.902Z,13.60
2022-09-25T19:04:49.427Z,13.60
2022-09-25T19:07:19.608Z,13.50
2022-09-25T19:09:47.745Z,13.40
2022-09-25T19:12:17.495Z,13.40
2022-09-25T19:14:46.844Z,13.50
2022-09-25T19:17:15.911Z,13.40
2022-09-25T19:19:44.046Z,13.40
2022-09-25T19:22:17.920Z,13.40
2022-09-25T19:24:48.238Z,13.40
2022-09-25T19:27:17.704Z,13.40
2022-09-25T19:29:59.867Z,13.40
2022-09-25T19:32:27.972Z,13.40
2022-09-25T19:34:55.932Z,13.30
2022-09-25T19:37:27.803Z,13.30
2022-09-25T19:40:14.704Z,13.30
2022-09-25T19:42:42.847Z,13.20
2022-09-25T19:45:11.639Z,13.20
2022-09-25T19:47:39.782Z,13.00
2022-09-25T19:50:08.953Z,12.80
2022-09-25T19:52:37.121Z,12.70
2022-09-25T19:55:07.402Z,12.50
2022-09-25T19:57:39.330Z,12.40
2022-09-25T20:00:09.510Z,12.30
2022-09-25T20:02:37.596Z,12.10
2022-09-25T20:05:06.269Z,12.00
2022-09-25T20:07:34.257Z,11.90
2022-09-25T20:10:02.310Z,11.80
2022-09-25T20:12:34.485Z,11.70
2022-09-25T20:15:02.615Z,11.60
2022-09-25T20:17:30.629Z,11.50
2022-09-25T20:19:58.862Z,11.50
2022-09-25T20:22:26.863Z,11.50
2022-09-25T20:24:54.899Z,11.50
2022-09-25T20:27:23.567Z,11.40
2022-09-25T20:29:53.485Z,11.40
2022-09-25T20:32:21.443Z,11.40
2022-09-25T20:34:49.599Z,11.30
2022-09-25T20:37:17.574Z,11.30
2022-09-25T20:39:45.818Z,11.40
2022-09-25T20:42:13.803Z,11.50
2022-09-25T20:44:41.920Z,11.50
2022-09-25T20:47:11.605Z,11.60
2022-09-25T20:49:42.901Z,11.60
2022-09-25T20:52:12.461Z,11.50
2022-09-25T20:54:41.670Z,11.50
2022-09-25T20:57:09.940Z,11.40
2022-09-25T20:59:38.504Z,11.40
2022-09-25T21:02:06.826Z,11.30
2022-09-25T21:04:36.623Z,11.30
2022-09-25T21:07:04.684Z,11.20
2022-09-25T21:09:32.752Z,11.30
2022-09-25T21:12:05.450Z,11.20
2022-09-25T21:14:34.907Z,11.10
2022-09-25T21:17:03.028Z,11.00
2022-09-25T21:19:34.729Z,11.00
2022-09-25T21:22:04.221Z,11.00
2022-09-25T21:24:32.261Z,11.10
2022-09-25T21:27:00.562Z,11.00
2022-09-25T21:29:28.642Z,11.00
2022-09-25T21:31:57.289Z,10.90
2022-09-25T21:34:26.571Z,10.80
2022-09-25T21:36:54.620Z,10.80
2022-09-25T21:39:23.982Z,10.80
2022-09-25T21:41:52.133Z,10.70
2022-09-25T21:44:23.503Z,10.70
2022-09-25T21:46:51.606Z,10.70
2022-09-25T21:49:22.255Z,10.60
2022-09-25T21:51:51.084Z,10.60
2022-09-25T21:54:19.431Z,10.50
2022-09-25T21:56:50.148Z,10.60
2022-09-25T21:59:18.234Z,10.40
2022-09-25T22:01:46.341Z,10.30
2022-09-25T22:04:15.555Z,10.40
2022-09-25T22:06:45.665Z,10.30
2022-09-25T22:09:16.811Z,10.30
2022-09-25T22:11:49.620Z,10.20
2022-09-25T22:14:18.625Z,10.10
2022-09-25T22:16:49.478Z,10.10
2022-09-25T22:19:23.324Z,10.20
2022-09-25T22:21:53.171Z,10.10
2022-09-25T22:24:22.797Z,10.10
2022-09-25T22:26:58.149Z,9.90
2022-09-25T22:29:26.533Z,9.90
2022-09-25T22:31:55.014Z,9.90
2022-09-25T22:34:24.960Z,9.90
2022-09-25T22:36:59.146Z,9.90
2022-09-25T22:39:28.430Z,9.80
2022-09-25T22:41:58.396Z,9.90
2022-09-25T22:44:26.873Z,9.80
2022-09-25T22:46:54.983Z,9.80
2022-09-25T22:49:23.275Z,9.60
2022-09-25T22:51:53.208Z,9.60
2022-09-25T22:54:21.339Z,9.60
2022-09-25T22:56:49.332Z,9.70
2022-09-25T22:59:18.964Z,9.70
2022-09-25T23:01:49.887Z,9.80
2022-09-25T23:04:22.453Z,9.70
2022-09-25T23:06:53.540Z,9.70
2022-09-25T23:09:24.998Z,9.60
2022-09-25T23:11:53.939Z,9.60
2022-09-25T23:14:25.093Z,9.50
2022-09-25T23:16:57.075Z,9.50
2022-09-25T23:19:25.547Z,9.50
2022-09-25T23:21:54.564Z,9.50
2022-09-25T23:24:23.555Z,9.50
2022-09-25T23:26:53.265Z,9.50
2022-09-25T23:29:25.445Z,9.50
2022-09-25T23:31:53.627Z,9.50
2022-09-25T23:34:23.090Z,9.50
2022-09-25T23:36:51.263Z,9.60
2022-09-25T23:39:20.915Z,9.50
2022-09-25T23:41:49.528Z,9.50
2022-09-25T23:44:20.024Z,9.40
2022-09-25T23:46:49.442Z,9.30
2022-09-25T23:49:17.601Z,9.30
2022-09-25T23:51:46.331Z,9.20
2022-09-25T23:54:14.912Z,9.20
2022-09-25T23:56:45.041Z,9.30
2022-09-25T23:59:14.351Z,9.30
